Time;durP1;ratioP1;P1;durP2;ratioP2;P2;SDS_P1;SDS_P2;PMS_P1;PMS_P2;Temp;Humidity;BMP_temperature;BMP_pressure;BME280_temperature;BME280_humidity;BME280_pressure;Samples;Min_cycle;Max_cycle;Signal;HPM_P1;HPM_P2
2022/06/19 00:02:02;;;;;;;;;;;;;;;;;;5014361;28;19909;-74
2022/06/19 00:04:28;;;;;;;;;;;;;;;;;;5014303;28;19992;-74
2022/06/19 00:06:56;;;;;;;;;;;;;;;;;;5014479;28;19920;-73
2022/06/19 00:09:22;;;;;;;;;;;;;;;;;;5014256;28;20004;-75
2022/06/19 00:11:48;;;;;;;;;;;;;;;;;;5014191;28;20385;-74
2022/06/19 00:14:14;;;;;;;;;;;;;;;;;;5014172;28;19916;-74
2022/06/19 00:16:40;;;;;;;;;;;;;;;;;;5014155;28;20000;-74
2022/06/19 00:19:06;;;;;;;;;;;;;;;;;;5014145;28;20372;-75
2022/06/19 00:21:31;;;;;;;;;;;;;;;;;;5014357;28;19910;-74
2022/06/19 00:23:58;;;;;;;;;;;;;;;;;;5014059;28;20348;-74
2022/06/19 00:26:24;;;;;;;;;;;;;;;;;;5014685;28;19917;-73
2022/06/19 00:28:50;;;;;;;;;;;;;;;;;;5013934;28;19913;-71
2022/06/19 00:31:16;;;;;;;;;;;;;;;;;;5014536;28;20366;-74
2022/06/19 00:33:42;;;;;;;;;;;;;;;;;;5014215;28;19916;-71
2022/06/19 00:36:08;;;;;;;;;;;;;;;;;;5013872;28;19917;-72
2022/06/19 00:38:34;;;;;;;;;;;;;;;;;;5014133;28;19959;-72
2022/06/19 00:41:00;;;;;;;;;;;;;;;;;;5013674;28;19918;-72
2022/06/19 00:43:25;;;;;;;;;;;;;;;;;;5014407;28;19925;-72
2022/06/19 00:45:51;;;;;;;;;;;;;;;;;;5013778;28;19910;-72
2022/06/19 00:48:17;;;;;;;;;;;;;;;;;;5014269;28;19918;-74
2022/06/19 00:50:43;;;;;;;;;;;;;;;;;;5013756;28;20282;-75
2022/06/19 00:53:09;;;;;;;;;;;;;;;;;;5013783;28;19918;-74
2022/06/19 00:55:36;;;;;;;;;;;;;;;;;;5013783;28;20263;-75
2022/06/19 00:58:02;;;;;;;;;;;;;;;;;;5013694;28;20004;-74
2022/06/19 01:00:28;;;;;;;;;;;;;;;;;;5014266;28;20388;-74
2022/06/19 01:02:54;;;;;;;;;;;;;;;;;;5013683;28;19999;-75
2022/06/19 01:05:20;;;;;;;;;;;;;;;;;;5013927;28;19909;-74
2022/06/19 01:07:46;;;;;;;;;;;;;;;;;;5012234;28;19921;-74
2022/06/19 01:10:15;;;;;;;;;;;;;;;;;;5015822;28;20293;-74
2022/06/19 01:12:40;;;;;;;;;;;;;;;;;;5016152;28;19936;-74
2022/06/19 01:15:06;;;;;;;;;;;;;;;;;;5017718;28;19948;-74
2022/06/19 01:17:32;;;;;;;;;;;;;;;;;;5016128;28;19960;-75
2022/06/19 01:19:58;;;;;;;;;;;;;;;;;;5017291;28;20349;-75
2022/06/19 01:22:24;;;;;;;;;;;;;;;;;;5017270;28;19910;-75
2022/06/19 01:24:50;;;;;;;;;;;;;;;;;;5017817;28;20000;-74
2022/06/19 01:30:00;;;;;;;;;;;;;;;;;;5016854;28;20018;-74
2022/06/19 01:32:26;;;;;;;;;;;;;;;;;;5017377;28;19921;-74
2022/06/19 01:34:53;;;;;;;;;;;;;;;;;;5017015;28;20005;-74
2022/06/19 01:37:20;;;;;;;;;;;;;;;;;;5017301;28;20432;-73
2022/06/19 01:39:46;;;;;;;;;;;;;;;;;;5016944;28;19917;-74
2022/06/19 01:42:12;;;;;;;;;;;;;;;;;;5016865;28;19921;-74
2022/06/19 01:44:38;;;;;;;;;;;;;;;;;;5015611;28;20384;-74
2022/06/19 01:47:03;;;;;;;;;;;;;;;;;;5017334;28;20302;-75
2022/06/19 01:49:29;;;;;;;;;;;;;;;;;;5017070;28;19910;-74
2022/06/19 01:51:55;;;;;;;;;;;;;;;;;;5017025;28;20405;-74
2022/06/19 01:54:21;;;;;;;;;;;;;;;;;;5016681;28;20293;-75
2022/06/19 01:56:47;;;;;;;;;;;;;;;;;;5016669;28;19913;-72
2022/06/19 01:59:13;;;;;;;;;;;;;;;;;;5015324;28;19916;-75
2022/06/19 02:01:39;;;;;;;;;;;;;;;;;;5016564;28;20270;-74
2022/06/19 02:04:05;;;;;;;;;;;;;;;;;;5016530;28;19960;-75
2022/06/19 02:06:31;;;;;;;;;;;;;;;;;;5016700;28;19945;-75
2022/06/19 02:08:57;;;;;;;;;;;;;;;;;;5016734;28;19910;-74
2022/06/19 02:11:22;;;;;;;;;;;;;;;;;;5016934;28;19909;-75
2022/06/19 02:13:50;;;;;;;;;;;;;;;;;;5016325;28;19913;-75
2022/06/19 02:16:15;;;;;;;;;;;;;;;;;;5014811;28;19915;-73
2022/06/19 02:18:41;;;;;;;;;;;;;;;;;;5016482;28;19918;-74
2022/06/19 02:21:07;;;;;;;;;;;;;;;;;;5015782;28;20318;-74
2022/06/19 02:23:33;;;;;;;;;;;;;;;;;;5016750;28;19909;-74
2022/06/19 02:25:59;;;;;;;;;;;;;;;;;;5016098;28;20267;-74
2022/06/19 02:28:25;;;;;;;;;;;;;;;;;;5016245;28;19914;-74
2022/06/19 02:30:51;;;;;;;;;;;;;;;;;;5016002;28;19917;-74
2022/06/19 02:33:17;;;;;;;;;;;;;;;;;;5016234;28;19910;-75
2022/06/19 02:35:43;;;;;;;;;;;;;;;;;;5015917;28;20365;-74
2022/06/19 02:38:09;;;;;;;;;;;;;;;;;;5016155;28;20381;-75
2022/06/19 02:40:34;;;;;;;;;;;;;;;;;;5016098;28;19913;-74
2022/06/19 02:43:00;;;;;;;;;;;;;;;;;;5015640;28;19928;-74
2022/06/19 02:45:26;;;;;;;;;;;;;;;;;;5016367;28;20347;-74
2022/06/19 02:47:52;;;;;;;;;;;;;;;;;;5015630;28;19914;-73
2022/06/19 02:50:18;;;;;;;;;;;;;;;;;;5015639;28;19910;-75
2022/06/19 02:52:44;;;;;;;;;;;;;;;;;;5015877;28;19917;-75
2022/06/19 02:55:10;;;;;;;;;;;;;;;;;;5015489;28;19932;-75
2022/06/19 02:57:36;;;;;;;;;;;;;;;;;;5016064;28;19916;-74
2022/06/19 03:00:02;;;;;;;;;;;;;;;;;;5015421;28;19924;-74
2022/06/19 03:02:28;;;;;;;;;;;;;;;;;;5015999;28;19913;-74
2022/06/19 03:04:56;;;;;;;;;;;;;;;;;;5015631;28;19996;-75
2022/06/19 03:07:22;;;;;;;;;;;;;;;;;;5015581;28;19986;-73
2022/06/19 03:09:47;;;;;;;;;;;;;;;;;;5015312;28;19941;-71
2022/06/19 03:12:13;;;;;;;;;;;;;;;;;;5015203;28;19910;-72
2022/06/19 03:14:39;;;;;;;;;;;;;;;;;;5015210;28;19913;-74
2022/06/19 03:17:05;;;;;;;;;;;;;;;;;;5015107;28;20370;-72
2022/06/19 03:19:31;;;;;;;;;;;;;;;;;;5015377;28;19909;-74
2022/06/19 03:21:57;;;;;;;;;;;;;;;;;;5015034;28;20015;-72
2022/06/19 03:24:23;;;;;;;;;;;;;;;;;;5015308;28;19909;-72
2022/06/19 03:26:49;;;;;;;;;;;;;;;;;;5014924;28;19910;-72
2022/06/19 03:29:15;;;;;;;;;;;;;;;;;;5015238;28;19916;-72
2022/06/19 03:31:41;;;;;;;;;;;;;;;;;;5014871;28;19909;-72
2022/06/19 03:34:07;;;;;;;;;;;;;;;;;;5013900;28;19975;-72
2022/06/19 03:36:33;;;;;;;;;;;;;;;;;;5014797;28;20373;-72
2022/06/19 03:38:59;;;;;;;;;;;;;;;;;;5014696;28;20365;-71
2022/06/19 03:41:25;;;;;;;;;;;;;;;;;;5014551;28;19932;-72
2022/06/19 03:43:50;;;;;;;;;;;;;;;;;;5013399;28;20380;-72
2022/06/19 03:46:16;;;;;;;;;;;;;;;;;;5014954;28;20009;-72
2022/06/19 03:48:42;;;;;;;;;;;;;;;;;;5014553;28;20251;-71
2022/06/19 03:51:08;;;;;;;;;;;;;;;;;;5015069;28;19914;-71
2022/06/19 03:53:34;;;;;;;;;;;;;;;;;;5014520;28;19952;-72
2022/06/19 03:56:00;;;;;;;;;;;;;;;;;;5014690;28;19916;-72
2022/06/19 03:58:45;;;;;;;;;;;;;;;;;;5014683;28;19910;-72
2022/06/19 04:01:11;;;;;;;;;;;;;;;;;;5014693;28;20412;-73
2022/06/19 04:03:37;;;;;;;;;;;;;;;;;;5014373;28;19914;-73
2022/06/19 04:06:03;;;;;;;;;;;;;;;;;;5014551;28;19909;-72
2022/06/19 04:08:28;;;;;;;;;;;;;;;;;;5014489;28;19920;-72
2022/06/19 04:10:54;;;;;;;;;;;;;;;;;;5014255;28;19995;-72
2022/06/19 04:13:20;;;;;;;;;;;;;;;;;;5014746;28;19909;-73
2022/06/19 04:15:46;;;;;;;;;;;;;;;;;;5014189;28;19909;-72
2022/06/19 04:18:12;;;;;;;;;;;;;;;;;;5014705;28;20255;-73
2022/06/19 04:20:38;;;;;;;;;;;;;;;;;;5014388;28;19921;-72
2022/06/19 04:23:06;;;;;;;;;;;;;;;;;;5014098;28;20333;-73
2022/06/19 04:25:32;;;;;;;;;;;;;;;;;;5014307;28;19909;-73
2022/06/19 04:27:57;;;;;;;;;;;;;;;;;;5013921;28;19917;-72
2022/06/19 04:30:23;;;;;;;;;;;;;;;;;;5013997;28;19957;-73
2022/06/19 04:32:49;;;;;;;;;;;;;;;;;;5014231;28;19932;-72
2022/06/19 04:35:15;;;;;;;;;;;;;;;;;;5013888;28;19964;-72
2022/06/19 04:37:43;;;;;;;;;;;;;;;;;;5014294;28;20354;-73
2022/06/19 04:40:09;;;;;;;;;;;;;;;;;;5012598;28;19921;-73
2022/06/19 04:42:34;;;;;;;;;;;;;;;;;;5013475;28;19921;-72
2022/06/19 04:45:00;;;;;;;;;;;;;;;;;;5016397;28;19909;-72
2022/06/19 04:47:26;;;;;;;;;;;;;;;;;;5017856;28;19914;-72
2022/06/19 04:49:52;;;;;;;;;;;;;;;;;;5016631;28;19910;-72
2022/06/19 04:52:18;;;;;;;;;;;;;;;;;;5017897;28;19996;-73
2022/06/19 04:54:45;;;;;;;;;;;;;;;;;;5018097;28;19932;-72
2022/06/19 04:57:11;;;;;;;;;;;;;;;;;;5017723;28;20401;-72
2022/06/19 04:59:37;;;;;;;;;;;;;;;;;;5017771;28;19921;-72
2022/06/19 05:02:03;;;;;;;;;;;;;;;;;;5017978;28;19945;-72
2022/06/19 05:04:29;;;;;;;;;;;;;;;;;;5017591;28;19960;-72
2022/06/19 05:06:55;;;;;;;;;;;;;;;;;;5017839;28;19992;-72
2022/06/19 05:09:21;;;;;;;;;;;;;;;;;;5017545;28;19909;-72
2022/06/19 05:11:47;;;;;;;;;;;;;;;;;;5018057;28;19909;-74
2022/06/19 05:14:13;;;;;;;;;;;;;;;;;;5017477;28;19909;-72
2022/06/19 05:16:39;;;;;;;;;;;;;;;;;;5017427;28;19984;-72
2022/06/19 05:19:05;;;;;;;;;;;;;;;;;;5017680;28;19914;-72
2022/06/19 05:21:31;;;;;;;;;;;;;;;;;;5017375;28;20444;-73
2022/06/19 05:23:57;;;;;;;;;;;;;;;;;;5017912;28;20004;-72
2022/06/19 05:26:23;;;;;;;;;;;;;;;;;;5017203;28;19918;-72
2022/06/19 05:28:50;;;;;;;;;;;;;;;;;;5017125;28;19914;-72
2022/06/19 05:31:16;;;;;;;;;;;;;;;;;;5017460;28;19909;-75
2022/06/19 05:33:42;;;;;;;;;;;;;;;;;;5017099;28;19961;-74
2022/06/19 05:36:08;;;;;;;;;;;;;;;;;;5017073;28;19953;-75
2022/06/19 05:38:34;;;;;;;;;;;;;;;;;;5016957;28;19910;-74
2022/06/19 05:41:00;;;;;;;;;;;;;;;;;;5016777;28;19917;-72
2022/06/19 05:43:26;;;;;;;;;;;;;;;;;;5017253;28;20000;-74
2022/06/19 05:45:52;;;;;;;;;;;;;;;;;;5017193;28;19909;-74
2022/06/19 05:48:18;;;;;;;;;;;;;;;;;;5015489;28;19971;-74
2022/06/19 05:50:43;;;;;;;;;;;;;;;;;;5016475;28;20480;-74
2022/06/19 05:53:09;;;;;;;;;;;;;;;;;;5016350;28;19914;-74
2022/06/19 05:55:35;;;;;;;;;;;;;;;;;;5015350;28;19932;-75
2022/06/19 05:58:01;;;;;;;;;;;;;;;;;;5016904;28;19948;-74
2022/06/19 06:00:27;;;;;;;;;;;;;;;;;;5016642;28;19962;-74
2022/06/19 06:02:53;;;;;;;;;;;;;;;;;;5016592;28;19910;-74
2022/06/19 06:05:19;;;;;;;;;;;;;;;;;;5016768;28;19910;-74
2022/06/19 06:07:49;;;;;;;;;;;;;;;;;;5016669;28;20362;-74
2022/06/19 06:10:14;;;;;;;;;;;;;;;;;;5015163;28;19909;-74
2022/06/19 06:12:40;;;;;;;;;;;;;;;;;;5016366;28;19960;-74
2022/06/19 06:15:06;;;;;;;;;;;;;;;;;;5016900;28;20388;-73
2022/06/19 06:17:32;;;;;;;;;;;;;;;;;;5016574;28;19910;-73
2022/06/19 06:19:58;;;;;;;;;;;;;;;;;;5016504;28;20374;-73
2022/06/19 06:22:24;;;;;;;;;;;;;;;;;;5016168;28;19910;-73
2022/06/19 06:24:50;;;;;;;;;;;;;;;;;;5014841;28;20383;-73
2022/06/19 06:27:16;;;;;;;;;;;;;;;;;;5016087;28;19961;-73
2022/06/19 06:29:41;;;;;;;;;;;;;;;;;;5016583;28;20357;-73
2022/06/19 06:32:07;;;;;;;;;;;;;;;;;;5015963;28;19920;-72
2022/06/19 06:34:34;;;;;;;;;;;;;;;;;;5015977;28;19910;-71
2022/06/19 06:37:00;;;;;;;;;;;;;;;;;;5015928;28;20286;-71
2022/06/19 06:39:25;;;;;;;;;;;;;;;;;;5015820;28;19910;-71
2022/06/19 06:41:51;;;;;;;;;;;;;;;;;;5015894;28;20008;-71
2022/06/19 06:44:17;;;;;;;;;;;;;;;;;;5016062;28;20008;-71
2022/06/19 06:46:43;;;;;;;;;;;;;;;;;;5014424;28;20363;-73
2022/06/19 06:49:10;;;;;;;;;;;;;;;;;;5015679;28;19968;-71
2022/06/19 06:51:36;;;;;;;;;;;;;;;;;;5015667;28;19910;-71
2022/06/19 06:54:02;;;;;;;;;;;;;;;;;;5015571;28;19910;-74
2022/06/19 06:56:28;;;;;;;;;;;;;;;;;;5015514;28;19914;-74
2022/06/19 06:58:53;;;;;;;;;;;;;;;;;;5015461;28;19916;-73
2022/06/19 07:01:19;;;;;;;;;;;;;;;;;;5015426;28;19910;-73
2022/06/19 07:03:45;;;;;;;;;;;;;;;;;;5015406;28;19909;-73
2022/06/19 07:06:11;;;;;;;;;;;;;;;;;;5015669;28;19913;-74
2022/06/19 07:08:37;;;;;;;;;;;;;;;;;;5015347;28;20277;-73
2022/06/19 07:11:03;;;;;;;;;;;;;;;;;;5015541;28;19917;-73
2022/06/19 07:13:29;;;;;;;;;;;;;;;;;;5015253;28;19909;-71
2022/06/19 07:15:55;;;;;;;;;;;;;;;;;;5015797;28;20365;-73
2022/06/19 07:18:21;;;;;;;;;;;;;;;;;;5015419;28;19909;-73
2022/06/19 07:20:47;;;;;;;;;;;;;;;;;;5015653;28;20016;-73
2022/06/19 07:23:12;;;;;;;;;;;;;;;;;;5015041;28;20349;-73
2022/06/19 07:25:38;;;;;;;;;;;;;;;;;;5015322;28;19913;-73
2022/06/19 07:28:04;;;;;;;;;;;;;;;;;;5014918;28;20321;-73
2022/06/19 07:30:30;;;;;;;;;;;;;;;;;;5015211;28;19956;-73
2022/06/19 07:32:56;;;;;;;;;;;;;;;;;;5014868;28;19914;-73
2022/06/19 07:35:22;;;;;;;;;;;;;;;;;;5015108;28;19909;-73
2022/06/19 07:37:48;;;;;;;;;;;;;;;;;;5014711;28;20399;-73
2022/06/19 07:40:14;;;;;;;;;;;;;;;;;;5014761;28;19913;-73
2022/06/19 07:42:40;;;;;;;;;;;;;;;;;;5014522;28;19926;-73
2022/06/19 07:45:05;;;;;;;;;;;;;;;;;;5014955;28;19909;-73
2022/06/19 07:50:17;;;;;;;;;;;;;;;;;;5014625;28;19963;-73
2022/06/19 07:52:43;;;;;;;;;;;;;;;;;;5014569;28;19999;-73
2022/06/19 07:55:09;;;;;;;;;;;;;;;;;;5014844;28;19913;-73
2022/06/19 07:57:35;;;;;;;;;;;;;;;;;;5014464;28;20313;-73
2022/06/19 08:00:01;;;;;;;;;;;;;;;;;;5014987;28;19909;-74
2022/06/19 08:02:27;;;;;;;;;;;;;;;;;;5013173;28;19909;-73
2022/06/19 08:04:53;;;;;;;;;;;;;;;;;;5014632;28;19909;-73
2022/06/19 08:07:19;;;;;;;;;;;;;;;;;;5014298;28;19921;-73
2022/06/19 08:09:45;;;;;;;;;;;;;;;;;;5014825;28;20351;-80
2022/06/19 08:12:11;;;;;;;;;;;;;;;;;;5013922;28;19910;-80
2022/06/19 08:14:36;;;;;;;;;;;;;;;;;;5012919;28;20286;-74
2022/06/19 08:17:02;;;;;;;;;;;;;;;;;;5014138;28;19952;-75
2022/06/19 08:19:28;;;;;;;;;;;;;;;;;;5013593;28;19914;-75
2022/06/19 08:21:54;;;;;;;;;;;;;;;;;;5013928;28;19917;-75
2022/06/19 08:24:20;;;;;;;;;;;;;;;;;;5014020;28;19933;-76
2022/06/19 08:26:47;;;;;;;;;;;;;;;;;;5013972;28;19994;-74
2022/06/19 08:29:13;;;;;;;;;;;;;;;;;;5013368;28;19916;-74
2022/06/19 08:31:39;;;;;;;;;;;;;;;;;;5012750;28;19913;-72
2022/06/19 08:34:04;;;;;;;;;;;;;;;;;;5012461;28;19944;-72
2022/06/19 08:36:30;;;;;;;;;;;;;;;;;;5013243;28;19909;-75
2022/06/19 08:38:56;;;;;;;;;;;;;;;;;;5013144;28;19910;-74
2022/06/19 08:41:23;;;;;;;;;;;;;;;;;;5012961;28;20012;-72
2022/06/19 08:43:49;;;;;;;;;;;;;;;;;;5013578;28;19909;-73
2022/06/19 08:46:15;;;;;;;;;;;;;;;;;;5014166;28;19944;-74
2022/06/19 08:48:40;;;;;;;;;;;;;;;;;;5014501;28;20378;-74
2022/06/19 08:51:06;;;;;;;;;;;;;;;;;;5015905;28;19916;-72
2022/06/19 08:53:32;;;;;;;;;;;;;;;;;;5013940;28;19956;-73
2022/06/19 08:55:58;;;;;;;;;;;;;;;;;;5014326;28;20365;-72
2022/06/19 08:58:24;;;;;;;;;;;;;;;;;;5014028;28;19960;-72
2022/06/19 09:00:51;;;;;;;;;;;;;;;;;;5013708;28;20369;-73
2022/06/19 09:03:17;;;;;;;;;;;;;;;;;;5013698;28;19910;-72
2022/06/19 09:05:46;;;;;;;;;;;;;;;;;;5013641;28;19948;-73
2022/06/19 09:08:12;;;;;;;;;;;;;;;;;;5012327;28;19920;-73
2022/06/19 09:10:38;;;;;;;;;;;;;;;;;;5013911;28;19913;-73
2022/06/19 09:13:04;;;;;;;;;;;;;;;;;;5013889;28;19916;-73
2022/06/19 09:15:30;;;;;;;;;;;;;;;;;;5014132;28;19910;-72
2022/06/19 09:17:56;;;;;;;;;;;;;;;;;;5013544;28;19916;-73
2022/06/19 09:20:22;;;;;;;;;;;;;;;;;;5013507;28;19909;-73
2022/06/19 09:22:48;;;;;;;;;;;;;;;;;;5013762;28;19914;-73
2022/06/19 09:25:14;;;;;;;;;;;;;;;;;;5013518;28;19952;-73
2022/06/19 09:27:39;;;;;;;;;;;;;;;;;;5013420;28;19925;-73
2022/06/19 09:30:05;;;;;;;;;;;;;;;;;;5013877;28;19909;-73
2022/06/19 09:32:31;;;;;;;;;;;;;;;;;;5017462;28;19910;-73
2022/06/19 09:34:57;;;;;;;;;;;;;;;;;;5017131;28;19948;-73
2022/06/19 09:37:23;;;;;;;;;;;;;;;;;;5017301;28;19910;-72
2022/06/19 09:39:49;;;;;;;;;;;;;;;;;;5016960;28;20079;-73
2022/06/19 09:42:15;;;;;;;;;;;;;;;;;;5016936;28;19928;-74
2022/06/19 09:44:41;;;;;;;;;;;;;;;;;;5017200;28;19909;-73
2022/06/19 09:47:07;;;;;;;;;;;;;;;;;;5017090;28;19909;-72
2022/06/19 09:49:32;;;;;;;;;;;;;;;;;;5016842;28;19992;-72
2022/06/19 09:51:58;;;;;;;;;;;;;;;;;;5016804;28;19913;-74
2022/06/19 09:54:24;;;;;;;;;;;;;;;;;;5017022;28;19909;-74
2022/06/19 09:56:50;;;;;;;;;;;;;;;;;;5016718;28;20366;-75
2022/06/19 09:59:16;;;;;;;;;;;;;;;;;;5016962;28;19916;-74
2022/06/19 10:01:42;;;;;;;;;;;;;;;;;;5016887;28;19909;-74
2022/06/19 10:04:09;;;;;;;;;;;;;;;;;;5016565;28;19920;-72
2022/06/19 10:06:35;;;;;;;;;;;;;;;;;;5015064;28;19909;-74
2022/06/19 10:09:01;;;;;;;;;;;;;;;;;;5016426;28;20259;-73
2022/06/19 10:11:27;;;;;;;;;;;;;;;;;;5016697;28;19917;-73
2022/06/19 10:13:53;;;;;;;;;;;;;;;;;;5016414;28;19953;-73
2022/06/19 10:16:18;;;;;;;;;;;;;;;;;;5016849;28;19932;-73
2022/06/19 10:18:44;;;;;;;;;;;;;;;;;;5016335;28;19909;-73
2022/06/19 10:21:10;;;;;;;;;;;;;;;;;;5016793;28;19909;-74
2022/06/19 10:23:37;;;;;;;;;;;;;;;;;;5016180;28;20354;-73
2022/06/19 10:26:03;;;;;;;;;;;;;;;;;;5016135;28;19909;-73
2022/06/19 10:28:29;;;;;;;;;;;;;;;;;;5015964;28;20004;-73
2022/06/19 10:30:55;;;;;;;;;;;;;;;;;;5016087;28;19916;-73
2022/06/19 10:33:21;;;;;;;;;;;;;;;;;;5016031;28;19914;-73
2022/06/19 10:35:46;;;;;;;;;;;;;;;;;;5016341;28;20005;-73
2022/06/19 10:38:12;;;;;;;;;;;;;;;;;;5015913;28;19949;-74
2022/06/19 10:40:38;;;;;;;;;;;;;;;;;;5016060;28;19971;-74
2022/06/19 10:43:04;;;;;;;;;;;;;;;;;;5015297;28;19967;-73
2022/06/19 10:45:30;;;;;;;;;;;;;;;;;;5016125;28;19910;-73
2022/06/19 10:47:58;;;;;;;;;;;;;;;;;;5014409;28;19913;-73
2022/06/19 10:50:24;;;;;;;;;;;;;;;;;;5015713;28;19914;-73
2022/06/19 10:52:50;;;;;;;;;;;;;;;;;;5015651;28;19910;-74
2022/06/19 10:55:16;;;;;;;;;;;;;;;;;;5015673;28;19910;-73
2022/06/19 10:57:42;;;;;;;;;;;;;;;;;;5015889;28;19909;-73
2022/06/19 11:00:08;;;;;;;;;;;;;;;;;;5015529;28;20320;-73
2022/06/19 11:05:18;;;;;;;;;;;;;;;;;;5015486;28;19980;-73
2022/06/19 11:07:44;;;;;;;;;;;;;;;;;;5015358;28;19913;-73
2022/06/19 11:10:10;;;;;;;;;;;;;;;;;;5015153;28;19956;-75
2022/06/19 11:12:37;;;;;;;;;;;;;;;;;;5015164;28;20289;-73
2022/06/19 11:15:03;;;;;;;;;;;;;;;;;;5014031;28;20254;-75
2022/06/19 11:17:29;;;;;;;;;;;;;;;;;;5015731;28;19916;-75
2022/06/19 11:19:55;;;;;;;;;;;;;;;;;;5015388;28;19909;-75
2022/06/19 11:22:21;;;;;;;;;;;;;;;;;;5015379;28;20005;-75
2022/06/19 11:24:47;;;;;;;;;;;;;;;;;;5015236;28;20413;-72
2022/06/19 11:27:12;;;;;;;;;;;;;;;;;;5014826;28;19960;-77
2022/06/19 11:29:38;;;;;;;;;;;;;;;;;;5014920;28;20007;-75
2022/06/19 11:32:04;;;;;;;;;;;;;;;;;;5015132;28;19909;-74
2022/06/19 11:34:50;;;;;;;;;;;;;;;;;;5015118;28;19919;-75
2022/06/19 11:37:16;;;;;;;;;;;;;;;;;;5015073;28;19997;-74
2022/06/19 11:39:42;;;;;;;;;;;;;;;;;;5014602;28;19948;-75
2022/06/19 11:42:08;;;;;;;;;;;;;;;;;;5014665;28;19925;-75
2022/06/19 11:44:34;;;;;;;;;;;;;;;;;;5013500;28;19956;-75
2022/06/19 11:46:59;;;;;;;;;;;;;;;;;;5014842;28;19910;-73
2022/06/19 11:49:25;;;;;;;;;;;;;;;;;;5014636;28;19916;-74
2022/06/19 11:51:51;;;;;;;;;;;;;;;;;;5014890;28;19910;-74
2022/06/19 11:54:17;;;;;;;;;;;;;;;;;;5013733;28;19916;-75
2022/06/19 11:56:43;;;;;;;;;;;;;;;;;;5015130;28;20278;-74
2022/06/19 11:59:09;;;;;;;;;;;;;;;;;;5014511;28;20388;-75
2022/06/19 12:01:35;;;;;;;;;;;;;;;;;;5015002;28;20377;-75
2022/06/19 12:04:01;;;;;;;;;;;;;;;;;;5014364;28;19996;-72
2022/06/19 12:06:27;;;;;;;;;;;;;;;;;;5014389;28;20007;-75
2022/06/19 12:08:53;;;;;;;;;;;;;;;;;;5014230;28;19914;-75
2022/06/19 12:11:19;;;;;;;;;;;;;;;;;;5014556;28;19913;-75
2022/06/19 12:13:45;;;;;;;;;;;;;;;;;;5014201;28;19909;-75
2022/06/19 12:16:10;;;;;;;;;;;;;;;;;;5014726;28;19916;-74
2022/06/19 12:18:36;;;;;;;;;;;;;;;;;;5014428;28;19910;-75
2022/06/19 12:21:02;;;;;;;;;;;;;;;;;;5014175;28;19909;-76
2022/06/19 12:23:28;;;;;;;;;;;;;;;;;;5014146;28;19921;-75
2022/06/19 12:25:54;;;;;;;;;;;;;;;;;;5014037;28;19939;-75
2022/06/19 12:28:20;;;;;;;;;;;;;;;;;;5013953;28;20255;-76
2022/06/19 12:30:46;;;;;;;;;;;;;;;;;;5012759;28;19955;-75
2022/06/19 12:33:12;;;;;;;;;;;;;;;;;;5012738;28;19910;-75
2022/06/19 12:35:38;;;;;;;;;;;;;;;;;;5012758;28;19914;-75
2022/06/19 12:38:03;;;;;;;;;;;;;;;;;;5014407;28;20377;-76
2022/06/19 12:40:30;;;;;;;;;;;;;;;;;;5013916;28;19941;-75
2022/06/19 12:42:56;;;;;;;;;;;;;;;;;;5013508;28;19928;-75
2022/06/19 12:45:22;;;;;;;;;;;;;;;;;;5014093;28;19909;-75
2022/06/19 12:47:47;;;;;;;;;;;;;;;;;;5013805;28;20285;-75
2022/06/19 12:50:17;;;;;;;;;;;;;;;;;;5013887;28;19909;-74
2022/06/19 12:52:43;;;;;;;;;;;;;;;;;;5013829;28;19999;-75
2022/06/19 12:55:09;;;;;;;;;;;;;;;;;;5013816;28;20329;-75
2022/06/19 12:57:35;;;;;;;;;;;;;;;;;;5014317;28;20281;-75
2022/06/19 13:00:01;;;;;;;;;;;;;;;;;;5013749;28;19964;-75
2022/06/19 13:02:27;;;;;;;;;;;;;;;;;;5014027;28;19944;-75
2022/06/19 13:04:53;;;;;;;;;;;;;;;;;;5014101;28;19909;-75
2022/06/19 13:07:19;;;;;;;;;;;;;;;;;;5017655;28;20408;-75
2022/06/19 13:09:45;;;;;;;;;;;;;;;;;;5017869;28;19957;-74
2022/06/19 13:12:11;;;;;;;;;;;;;;;;;;5017545;28;19909;-75
2022/06/19 13:14:36;;;;;;;;;;;;;;;;;;5018044;28;20358;-75
2022/06/19 13:17:03;;;;;;;;;;;;;;;;;;5017719;28;20013;-72
2022/06/19 13:19:28;;;;;;;;;;;;;;;;;;5017368;28;19948;-77
2022/06/19 13:21:54;;;;;;;;;;;;;;;;;;5017619;28;19999;-75
2022/06/19 13:24:20;;;;;;;;;;;;;;;;;;5017337;28;19959;-75
2022/06/19 13:29:31;;;;;;;;;;;;;;;;;;5017297;28;19920;-75
2022/06/19 13:31:57;;;;;;;;;;;;;;;;;;5017202;28;20004;-75
2022/06/19 13:34:23;;;;;;;;;;;;;;;;;;5017156;28;19936;-75
2022/06/19 13:36:49;;;;;;;;;;;;;;;;;;5017139;28;19913;-75
2022/06/19 13:39:15;;;;;;;;;;;;;;;;;;5016985;28;19919;-75
2022/06/19 13:41:43;;;;;;;;;;;;;;;;;;5015572;28;19928;-73
2022/06/19 13:44:09;;;;;;;;;;;;;;;;;;5017203;28;20009;-74
2022/06/19 13:46:34;;;;;;;;;;;;;;;;;;5016958;28;19949;-75
2022/06/19 13:49:00;;;;;;;;;;;;;;;;;;5017100;28;19919;-75
2022/06/19 13:51:26;;;;;;;;;;;;;;;;;;5016862;28;19909;-74
2022/06/19 13:53:53;;;;;;;;;;;;;;;;;;5017291;28;19948;-75
2022/06/19 13:56:19;;;;;;;;;;;;;;;;;;5017098;28;19910;-75
2022/06/19 13:58:46;;;;;;;;;;;;;;;;;;5016692;28;19909;-76
2022/06/19 14:01:11;;;;;;;;;;;;;;;;;;5016644;28;19917;-73
2022/06/19 14:06:22;;;;;;;;;;;;;;;;;;5019932;28;19936;-76
2022/06/19 14:08:48;;;;;;;;;;;;;;;;;;5033460;28;20385;-76
2022/06/19 14:11:14;;;;;;;;;;;;;;;;;;5035308;28;19913;-79
2022/06/19 14:13:41;;;;;;;;;;;;;;;;;;5033930;28;20293;-77
2022/06/19 14:16:07;;;;;;;;;;;;;;;;;;5035656;28;19913;-77
2022/06/19 14:18:32;;;;;;;;;;;;;;;;;;5035019;28;19909;-75
2022/06/19 14:20:58;;;;;;;;;;;;;;;;;;5036062;28;19936;-77
2022/06/19 14:23:24;;;;;;;;;;;;;;;;;;5036033;28;20373;-75
2022/06/19 14:25:50;;;;;;;;;;;;;;;;;;5035989;28;19909;-74
2022/06/19 14:28:16;;;;;;;;;;;;;;;;;;5036425;28;20269;-74
2022/06/19 14:30:42;;;;;;;;;;;;;;;;;;5036183;28;19916;-76
2022/06/19 14:33:08;;;;;;;;;;;;;;;;;;5036111;28;20391;-75
2022/06/19 14:35:34;;;;;;;;;;;;;;;;;;5035797;28;20281;-75
2022/06/19 14:38:00;;;;;;;;;;;;;;;;;;5035712;28;19909;-74
2022/06/19 14:40:25;;;;;;;;;;;;;;;;;;5034450;28;19916;-74
2022/06/19 14:42:51;;;;;;;;;;;;;;;;;;5035250;28;19948;-75
2022/06/19 14:45:17;;;;;;;;;;;;;;;;;;5035664;28;20365;-74
2022/06/19 14:47:43;;;;;;;;;;;;;;;;;;5035494;28;19959;-75
2022/06/19 14:50:10;;;;;;;;;;;;;;;;;;5035494;28;19992;-75
2022/06/19 14:52:36;;;;;;;;;;;;;;;;;;5035521;28;19909;-74
2022/06/19 14:55:02;;;;;;;;;;;;;;;;;;5035407;28;19916;-74
2022/06/19 14:57:28;;;;;;;;;;;;;;;;;;5035940;28;19952;-74
2022/06/19 14:59:54;;;;;;;;;;;;;;;;;;5035305;28;19915;-75
2022/06/19 15:02:20;;;;;;;;;;;;;;;;;;5035281;28;19909;-75
2022/06/19 15:04:46;;;;;;;;;;;;;;;;;;5035246;28;19909;-75
2022/06/19 15:07:12;;;;;;;;;;;;;;;;;;5035097;28;19916;-75
2022/06/19 15:09:38;;;;;;;;;;;;;;;;;;5035132;28;19913;-76
2022/06/19 15:12:04;;;;;;;;;;;;;;;;;;5035395;28;20369;-76
2022/06/19 15:14:30;;;;;;;;;;;;;;;;;;5035000;28;20328;-75
2022/06/19 15:16:57;;;;;;;;;;;;;;;;;;5035591;28;19909;-75
2022/06/19 15:19:23;;;;;;;;;;;;;;;;;;5034923;28;19959;-75
2022/06/19 15:21:49;;;;;;;;;;;;;;;;;;5035139;28;19909;-73
2022/06/19 15:24:15;;;;;;;;;;;;;;;;;;5035092;28;19909;-74
2022/06/19 15:26:41;;;;;;;;;;;;;;;;;;5035401;28;19916;-76
2022/06/19 15:29:07;;;;;;;;;;;;;;;;;;5033332;28;19913;-75
2022/06/19 15:31:32;;;;;;;;;;;;;;;;;;5035294;28;19916;-75
2022/06/19 15:33:58;;;;;;;;;;;;;;;;;;5034682;28;19920;-75
2022/06/19 15:36:24;;;;;;;;;;;;;;;;;;5035175;28;20350;-75
2022/06/19 15:38:56;;;;;;;;;;;;;;;;;;5034530;28;19939;-75
2022/06/19 15:41:22;;;;;;;;;;;;;;;;;;5034721;28;19921;-73
2022/06/19 15:43:48;;;;;;;;;;;;;;;;;;5034660;28;19913;-76
2022/06/19 15:46:14;;;;;;;;;;;;;;;;;;5034466;28;20388;-75
2022/06/19 15:48:40;;;;;;;;;;;;;;;;;;5034320;28;19913;-74
2022/06/19 15:51:06;;;;;;;;;;;;;;;;;;5034620;28;19909;-75
2022/06/19 15:53:32;;;;;;;;;;;;;;;;;;5034300;28;19916;-75
2022/06/19 15:55:58;;;;;;;;;;;;;;;;;;5034303;28;20365;-75
2022/06/19 15:58:24;;;;;;;;;;;;;;;;;;5034759;28;20364;-75
2022/06/19 16:00:53;;;;;;;;;;;;;;;;;;5034465;28;19935;-75
2022/06/19 16:03:18;;;;;;;;;;;;;;;;;;5034157;28;20281;-75
2022/06/19 16:05:44;;;;;;;;;;;;;;;;;;5034693;28;19909;-77
2022/06/19 16:08:10;;;;;;;;;;;;;;;;;;5034013;28;19913;-75
2022/06/19 16:10:36;;;;;;;;;;;;;;;;;;5032783;28;19909;-73
2022/06/19 16:13:02;;;;;;;;;;;;;;;;;;5034588;28;20243;-76
2022/06/19 16:15:28;;;;;;;;;;;;;;;;;;5033985;28;20043;-75
2022/06/19 16:17:54;;;;;;;;;;;;;;;;;;5034490;28;19909;-74
2022/06/19 16:20:20;;;;;;;;;;;;;;;;;;5034127;28;19910;-76
2022/06/19 16:22:46;;;;;;;;;;;;;;;;;;5034130;28;20377;-75
2022/06/19 16:25:11;;;;;;;;;;;;;;;;;;5033862;28;20350;-76
2022/06/19 16:27:37;;;;;;;;;;;;;;;;;;5032450;28;19913;-75
2022/06/19 16:30:03;;;;;;;;;;;;;;;;;;5034113;28;20264;-75
2022/06/19 16:32:30;;;;;;;;;;;;;;;;;;5033778;28;20293;-75
2022/06/19 16:45:54;;;;;;;;;;;;;;;;;;5032950;28;19963;-80
2022/06/19 16:48:20;;;;;;;;;;;;;;;;;;5033336;28;19918;-77
2022/06/19 16:50:46;;;;;;;;;;;;;;;;;;5033513;28;20281;-75
2022/06/19 16:53:12;;;;;;;;;;;;;;;;;;5032982;28;19910;-76
2022/06/19 16:55:38;;;;;;;;;;;;;;;;;;5030612;28;19975;-75
2022/06/19 16:58:04;;;;;;;;;;;;;;;;;;5030485;28;19909;-74
2022/06/19 17:00:29;;;;;;;;;;;;;;;;;;5031567;28;19909;-75
2022/06/19 17:02:55;;;;;;;;;;;;;;;;;;5031877;28;19996;-74